createdAt,value
2022-12-08T14:09:05.070Z,8.54
2022-12-08T14:11:36.204Z,8.53
2022-12-08T14:14:04.594Z,8.54
2022-12-08T14:16:41.365Z,8.53
2022-12-08T14:19:26.984Z,8.52
2022-12-08T14:22:00.479Z,8.51
2022-12-08T14:24:28.255Z,8.52
2022-12-08T14:26:56.536Z,8.51
2022-12-08T14:29:29.108Z,8.50
2022-12-08T14:31:55.469Z,8.49
2022-12-08T14:34:22.011Z,8.46
2022-12-08T14:36:48.405Z,8.46
2022-12-08T14:39:14.864Z,8.44
2022-12-08T14:41:41.237Z,8.43
2022-12-08T14:44:21.185Z,8.41
2022-12-08T14:47:05.723Z,8.40
2022-12-08T14:49:36.977Z,8.40
2022-12-08T14:52:08.443Z,8.38
2022-12-08T14:54:35.316Z,8.38
2022-12-08T14:57:02.500Z,8.38
2022-12-08T14:59:33.264Z,8.36
2022-12-08T15:02:24.572Z,8.37
2022-12-08T15:04:58.587Z,8.37
2022-12-08T15:07:27.794Z,8.36
2022-12-08T15:10:27.257Z,8.35
2022-12-08T15:12:59.570Z,8.36
2022-12-08T15:15:26.537Z,8.35
2022-12-08T15:18:04.425Z,8.34
2022-12-08T15:20:45.517Z,8.34
2022-12-08T15:23:20.290Z,8.34
2022-12-08T15:25:46.712Z,8.33
2022-12-08T15:28:14.147Z,8.32
2022-12-08T15:30:40.628Z,8.32
2022-12-08T15:33:07.051Z,8.32
2022-12-08T15:35:38.837Z,8.32
2022-12-08T15:38:07.478Z,8.33
2022-12-08T15:40:33.845Z,8.33
2022-12-08T15:43:00.226Z,8.34
2022-12-08T15:45:30.410Z,8.33
2022-12-08T15:47:56.783Z,8.33
2022-12-08T15:50:23.639Z,8.35
2022-12-08T15:52:50.758Z,8.34
2022-12-08T15:55:18.631Z,8.34
2022-12-08T15:58:51.270Z,8.35
2022-12-08T16:03:59.873Z,8.35
2022-12-08T16:06:57.392Z,8.34
2022-12-08T16:09:11.247Z,8.35
2022-12-08T16:12:06.333Z,8.34
2022-12-08T16:15:39.754Z,8.33
2022-12-08T16:17:21.191Z,8.33
2022-12-08T16:19:47.659Z,8.31
2022-12-08T16:22:52.427Z,8.31
2022-12-08T16:25:17.842Z,8.29
2022-12-08T16:28:12.399Z,8.28
2022-12-08T16:30:32.014Z,8.27
2022-12-08T16:32:58.459Z,8.28
2022-12-08T16:35:24.826Z,8.27
2022-12-08T16:37:51.183Z,8.27
2022-12-08T16:40:17.744Z,8.26
2022-12-08T16:42:44.362Z,8.26
2022-12-08T16:45:18.292Z,8.25
2022-12-08T16:47:46.253Z,8.27
2022-12-08T16:50:17.147Z,8.24
2022-12-08T16:52:43.571Z,8.26
2022-12-08T16:55:14.676Z,8.25
2022-12-08T16:57:41.491Z,8.25
2022-12-08T17:00:09.080Z,8.24
2022-12-08T17:02:35.864Z,8.24
2022-12-08T17:05:02.333Z,8.25
2022-12-08T17:07:28.749Z,8.25
2022-12-08T17:09:55.128Z,8.25
2022-12-08T17:12:21.537Z,8.25
2022-12-08T17:14:47.899Z,8.25
2022-12-08T17:17:14.257Z,8.25
2022-12-08T17:19:40.661Z,8.25
2022-12-08T17:22:07.043Z,8.24
2022-12-08T17:24:33.544Z,8.24
2022-12-08T17:27:04.245Z,8.23
2022-12-08T17:29:31.540Z,8.22
2022-12-08T17:31:58.733Z,8.21
2022-12-08T17:34:25.206Z,8.21
2022-12-08T17:36:51.789Z,8.19
2022-12-08T17:39:19.240Z,8.26
2022-12-08T17:41:45.920Z,8.43
2022-12-08T17:44:13.582Z,8.70
2022-12-08T17:46:43.396Z,9.03
2022-12-08T17:49:15.768Z,9.42
2022-12-08T17:51:42.168Z,9.82
2022-12-08T17:54:08.597Z,10.22
2022-12-08T17:56:34.944Z,10.55
2022-12-08T17:59:02.681Z,10.83
2022-12-08T23:11:31.284Z,4.98
2022-12-08T23:13:59.857Z,4.96
2022-12-08T23:16:26.725Z,4.95
2022-12-08T23:18:53.605Z,4.93
2022-12-08T23:21:20.365Z,4.93
2022-12-08T23:23:46.948Z,4.90
2022-12-08T23:26:20.462Z,4.88
2022-12-08T23:28:47.369Z,4.87
2022-12-08T23:31:13.939Z,4.84
2022-12-08T23:33:40.924Z,4.82
2022-12-08T23:36:07.836Z,4.78
2022-12-08T23:38:34.486Z,4.76
2022-12-08T23:41:05.508Z,4.74
2022-12-08T23:43:32.081Z,4.72
2022-12-08T23:45:58.568Z,4.69
2022-12-08T23:48:25.129Z,4.68
2022-12-08T23:50:51.531Z,4.64
2022-12-08T23:53:18.018Z,4.63
2022-12-08T23:55:44.582Z,4.60
2022-12-08T23:58:11.400Z,4.57
